Amargosa Valley, Nevada Weather observations

Data are for observation ending at time listed.
 Day   Time    Ave.   Ave.  Ave.  Vector   Max.   Stn.    Total    Solar   Ave.  
  of    of     Air    Rel.  Wind   Wind    Wind   Baro.  Precip.   Rad.    Soil  
Year   Day     Temp.  Hum.  Speed  Dir.    Gust   Pres.                    Temp. 
2015   (PST)    F      %     mph   deg.    mph     mb.     in.     W/m2     F   
------------------------------------------------------------------------------
 114   19:30   66.1    30   15.1   173     22.1   921.0    0.00       0    75.4
 114   19:40   65.6    31   15.0   172     23.8   921.2    0.00       0    75.3
 114   19:50   65.1    32   15.8   171     20.8   921.4    0.00       0    75.3
 114   20:00   64.3    35   15.1   166     21.0   921.6    0.00       0    75.3
 114   20:10   63.8    37   15.3   162     21.9   921.7    0.00       0    75.2
 114   20:20   63.6    37   16.3   160     24.2   921.9    0.00       0    75.1
 114   20:30   63.1    38   12.4   163     17.0   922.2    0.00       0    75.1
 114   20:40   62.9    39   13.8   164     21.7   922.3    0.00       0    75.0
 114   20:50   62.7    40   12.5   157     19.7   922.3    0.00       0    74.9
 114   21:00   62.4    40   12.8   154     17.4   922.5    0.00       0    74.9
 114   21:10   62.3    41   12.3   147     19.1   922.5    0.00       0    74.8
 114   21:20   62.0    41   11.0   144     16.5   922.5    0.00       0    74.7
 114   21:30   61.7    41   10.7   151     17.2   922.4    0.00       0    74.6
 114   21:40   61.4    42    9.6   145     14.1   922.5    0.00       0    74.5
 114   21:50   61.1    42    8.6   128     13.2   922.6    0.00       0    74.4
 114   22:00   60.9    42    9.7   132     14.7   922.5    0.00       0    74.4
 114   22:10   60.5    43    9.2   145     12.7   922.5    0.00       0    74.3
 114   22:20   60.8    43    8.5   142     13.0   922.7    0.00       0    74.2
 114   22:30   60.2    43    6.9   112      9.3   922.9    0.00       0    74.1
 114   22:40   59.8    44    6.1   132      8.9   922.9    0.00       0    74.0
 114   22:50   59.2    46    6.1   127      8.7   922.8    0.00       0    73.9
 114   23:00   58.8    47    4.6   114      6.9   922.8    0.00       0    73.8
 114   23:10   58.3    48    4.0   137      7.1   922.9    0.00       0    73.7
 114   23:20   57.8    50    4.4   140      6.4   922.9    0.00       0    73.6
 114   23:30   57.5    51    5.7   154      8.0   922.8    0.00       0    73.5
 114   23:40   57.9    51    5.6   161      8.7   922.9    0.00       0    73.4
 114   23:50   58.1    51    5.4   158      8.2   923.1    0.00       0    73.3
 115    0:00   58.1    51    4.5   154      7.0   923.1    0.00       0    73.2
 115    0:10   58.1    51    4.2   161      6.5   923.1    0.00       0    73.1
 115    0:20   58.2    50    3.0   118      4.6   923.0    0.00       0    73.0
 115    0:30   58.1    51    3.5   131      8.0   922.9    0.00       0    73.0
 115    0:40   58.0    51    5.8   131      9.4   922.8    0.00       0    72.9
 115    0:50   57.7    51    7.2   137     11.2   922.6    0.00       0    72.8
 115    1:00   57.6    51    8.2   135     11.4   922.5    0.00       0    72.7
 115    1:10   57.2    52    7.3   136     11.0   922.5    0.00       0    72.6
 115    1:20   56.8    52    6.7   126      9.9   922.6    0.00       0    72.5
 115    1:30   56.5    53    7.0   134     10.8   922.5    0.00       0    72.4
 115    1:40   56.4    53    7.0   129     10.3   922.5    0.00       0    72.3
 115    1:50   56.1    53    7.4   122     11.2   922.5    0.00       0    72.2
 115    2:00   55.9    53    6.9   135      9.3   922.5    0.00       0    72.2
 115    2:10   55.3    54    6.3   140      9.6   922.4    0.00       0    72.1
 115    2:20   55.9    52    8.5   143     14.2   922.2    0.00       0    72.0
 115    2:30   55.7    52    6.7   144      9.1   922.1    0.00       0    71.9
 115    2:40   55.4    53    6.5   134     10.2   922.0    0.00       0    71.8
 115    2:50   55.1    54    5.6   129      8.1   922.0    0.00       0    71.7
 115    3:00   55.2    53    5.1   138      8.8   922.2    0.00       0    71.6
 115    3:10   55.5    51    6.8   147     11.0   922.2    0.00       0    71.6
 115    3:20   55.8    49    7.3   149     11.7   922.2    0.00       0    71.5
 115    3:30   55.7    50    8.3   160     13.6   922.2    0.00       0    71.4
 115    3:40   55.9    48    9.8   161     14.9   922.0    0.00       0    71.3
 115    3:50   55.8    48    7.6   153     11.3   921.9    0.00       0    71.2
 115    4:00   55.6    49    8.9   162     15.1   921.9    0.00       0    71.1
 115    4:10   55.4    49    9.2   158     14.1   921.8    0.00       0    71.0
 115    4:20   55.2    50    7.6   149     11.7   921.9    0.00       0    71.0
 115    4:30   55.2    50    9.5   153     14.2   921.9    0.00       0    70.9
 115    4:40   54.8    51    8.6   153     12.8   921.9    0.00       0    70.8
 115    4:50   54.7    51    7.9   142     12.2   921.7    0.00       0    70.7
 115    5:00   54.8    51    8.6   144     12.2   921.7    0.00       0    70.6
 115    5:10   54.5    52    7.6   143     11.0   921.8    0.00       3    70.6
 115    5:20   54.0    52    7.0   141     10.6   921.8    0.00      14    70.5
 115    5:30   54.2    52    7.4   140     11.5   921.9    0.00      20    70.4
 115    5:40   54.6    51    9.9   154     14.8   921.9    0.00      25    70.3
 115    5:50   54.8    50   10.6   157     16.8   922.0    0.00      34    70.2
 115    6:00   55.0    50   10.9   150     15.8   921.9    0.00      51    70.2
 115    6:10   55.2    50    9.8   147     12.8   921.9    0.00      67    70.1
 115    6:20   55.4    49    9.5   142     13.6   921.9    0.00      77    70.0
 115    6:30   55.5    49    8.3   149     14.3   921.9    0.00      85    69.9
 115    6:40   55.7    48    8.9   152     12.5   922.0    0.00      85    69.9
 115    6:50   55.7    48   10.1   157     14.8   921.9    0.00      85    69.8
 115    7:00   55.8    47   10.2   156     15.2   921.8    0.00      94    69.7
 115    7:10   56.0    46    9.3   160     14.0   921.8    0.00     105    69.7
 115    7:20   56.3    46    7.6   155     12.2   921.8    0.00     115    69.6
 115    7:30   56.5    46    9.0   157     12.3   921.9    0.00     140    69.5
 115    7:40   56.8    45   10.5   163     16.4   921.9    0.00     160    69.5
 115    7:50   57.0    44   10.4   160     14.8   921.9    0.00     186    69.4
 115    8:00   57.3    43   11.4   155     15.6   921.8    0.00     186    69.3
 115    8:10   57.5    42   10.8   156     15.8   921.5    0.00     193    69.3
 115    8:20   57.7    40   10.5   151     15.8   921.7    0.00     212    69.2
 115    8:30   58.4    39   10.2   151     14.9   921.9    0.00     246    69.2
 115    8:40   58.9    38   10.6   153     15.1   921.8    0.00     285    69.1
 115    8:50   59.8    36   11.9   149     17.7   921.7    0.00     422    69.1
 115    9:00   61.1    34   12.3   153     18.1   921.6    0.00     551    69.1
 115    9:10   61.3    31   15.1   173     22.2   921.6    0.00     484    69.0
 115    9:20   61.6    30   14.3   182     19.8   921.7    0.00     422    69.0
 115    9:30   62.0    30   14.0   175     22.4   921.7    0.00     506    69.0
 115    9:40   62.3    30   14.9   183     20.5   921.6    0.00     570    69.0
 115    9:50   62.9    29   14.3   171     21.9   921.6    0.00     551    69.0
 115   10:00   62.9    29   13.7   176     20.7   921.6    0.00     492    69.0
 115   10:10   62.8    29   12.7   177     20.8   921.5    0.00     449    69.0
 115   10:20   64.0    28   14.9   174     22.0   921.4    0.00     759    69.0
 115   10:30   64.6    28   13.5   172     18.6   921.3    0.00     853    69.0
 115   10:40   64.4    28   11.3   178     19.1   921.3    0.00     795    69.0
 115   10:50   64.7    27   11.8   182     18.7   921.1    0.00     518    69.1
 115   11:00   64.2    27   11.3   158     17.6   921.0    0.00     402    69.1
 115   11:10   64.2    27   11.9   161     18.9   920.8    0.00     366    69.2
 115   11:20   64.5    27   11.8   164     16.1   920.5    0.00     343    69.2
 115   11:30   64.6    26   11.8   143     18.8   920.4    0.00     493    69.2
 115   11:40   66.0    25    9.8   169     16.5   920.1    0.00     718    69.3
 115   11:50   66.6    24   10.2   134     14.8   920.1    0.00     743    69.3
 115   12:00   66.5    25   11.8   142     20.2   920.0    0.00     755    69.4
 115   12:10   67.8    24   11.9   143     17.2   919.8    0.00    1031    69.4
 115   12:20   68.0    24   13.7   143     20.1   919.6    0.00    1071    69.5
 115   12:30   68.9    23   13.9   150     20.5   919.5    0.00     957    69.6
 115   12:40   69.3    23   12.4   156     20.2   919.4    0.00     984    69.6
 115   12:50   69.3    23   11.4   156     18.6   919.3    0.00     962    69.8
 115   13:00   69.5    23   12.1   165     20.0   919.2    0.00     936    69.9
 115   13:10   69.3    24   11.5   164     21.1   919.1    0.00     922    70.0
 115   13:20   69.9    23   10.8   149     20.8   919.1    0.00     986    70.1
 115   13:30   70.7    23   11.2   152     22.2   919.0    0.00     984    70.3
 115   13:40   70.2    23   11.7   126     20.3   919.0    0.00     552    70.5
 115   13:50   69.3    24    7.0   110     25.8   919.5    0.00     109    70.7
 115   14:00   60.3    46   12.5   318     29.1   920.1    0.00      18    70.9
 115   14:10   55.0    72    9.6   322     22.0   919.8    0.04      20    71.2
 115   14:20   52.6    82    7.0   323     13.6   919.6    0.07      23    71.4
 115   14:30   52.5    78    4.1   336     13.5   919.5    0.00      14    71.6
 115   14:40   52.2    76    3.3   357      9.4   919.5    0.01      13    71.7
 115   14:50   52.3    75    4.1     4     12.3   920.1    0.00      13    71.9
 115   15:00   52.1    72    4.7     4     13.3   920.5    0.00      17    72.0
 115   15:10   51.6    72    7.3    20     17.6   920.0    0.00      29    72.0
 115   15:20   51.7    72    5.7    14     13.9   920.1    0.00      34    72.0
 115   15:30   52.0    73    6.3    28     11.3   920.4    0.00      46    72.0
 115   15:40   52.5    73    5.0    40     10.6   920.5    0.00      62    71.9
 115   15:50   53.1    70    4.3    37      7.2   920.7    0.00      83    71.8
 115   16:00   54.3    65    3.6    33      7.1   920.8    0.00      93    71.7
 115   16:10   55.5    58    2.1    29      5.5   920.8    0.00     100    71.5
 115   16:20   56.4    56    0.6    80      3.4   920.7    0.00     108    71.4
 115   16:30   56.8    54    2.1   107      4.4   920.7    0.00     116    71.2
 115   16:40   56.9    54    3.4   165      5.7   920.8    0.00     144    71.0
 115   16:50   56.4    59    5.7   187      7.8   920.7    0.00     180    70.9
 115   17:00   56.9    56    5.9   165      7.9   920.6    0.00     185    70.7
 115   17:10   57.2    54    5.9   137      9.1   920.6    0.00     123    70.6
 115   17:20   57.3    54    5.8   162      8.8   920.8    0.00      89    70.4
 115   17:30   57.2    57    6.0   184     10.4   921.0    0.00      72    70.3
 115   17:40   56.0    60    6.8   207      9.8   920.9    0.00      77    70.2
 115   17:50   55.5    62    6.6   208     10.0   920.9    0.00      56    70.1
 115   18:00   54.7    62    7.0   202     10.3   920.9    0.00      27    70.0
 115   18:10   54.6    62    7.0   200     10.0   920.9    0.00      17    69.9
 115   18:20   54.3    61    5.8   197      9.1   921.0    0.00      11    69.8
 115   18:30   53.9    63    4.6   205      7.4   921.0    0.00       5    69.7
 115   18:40   53.7    66    2.7   225      5.8   921.3    0.00       3    69.6
 115   18:50   53.2    67    4.1   233      7.6   921.2    0.00       1    69.5
 115   19:00   53.2    65    2.0   255      5.3   921.4    0.00       0    69.3
 115   19:10   53.4    61    2.6   276      7.7   921.6    0.00       0    69.2
 115   19:20   53.9    58    1.9   306      5.6   921.7    0.00       0    69.1

Return to Amargosa Valley, Nevada graphs page.


Western Regional Climate Center,wrcc@dri.edu